createdAt,value
2022-07-31T00:02:00.061Z,14.3
2022-07-31T00:06:58.136Z,14.2
2022-07-31T00:11:56.066Z,14.3
2022-07-31T00:16:54.277Z,14.2
2022-07-31T00:21:52.083Z,14.3
2022-07-31T00:26:49.799Z,14.1
2022-07-31T00:31:47.763Z,14.1
2022-07-31T00:36:45.800Z,13.9
2022-07-31T00:41:43.813Z,13.9
2022-07-31T00:46:41.326Z,13.9
2022-07-31T00:51:39.554Z,14
2022-07-31T00:56:37.718Z,14.1
2022-07-31T01:01:36.036Z,14.3
2022-07-31T01:06:34.092Z,14.3
2022-07-31T01:11:31.738Z,14
2022-07-31T01:16:29.800Z,14.1
2022-07-31T01:21:27.827Z,14.1
2022-07-31T01:26:26.020Z,14
2022-07-31T01:31:26.983Z,13.8
2022-07-31T01:36:22.188Z,13.7
2022-07-31T01:41:20.114Z,13.6
2022-07-31T01:46:18.177Z,13.8
2022-07-31T01:51:16.231Z,13.7
2022-07-31T01:56:14.657Z,13.7
2022-07-31T02:01:12.716Z,13.7
2022-07-31T02:06:10.821Z,13.7
2022-07-31T02:11:09.014Z,13.9
2022-07-31T02:16:07.390Z,14.1
2022-07-31T02:21:05.985Z,14.3
2022-07-31T02:26:04.287Z,14.5
2022-07-31T02:31:02.715Z,14.8
2022-07-31T02:36:00.750Z,14.8
2022-07-31T02:40:58.820Z,15.1
2022-07-31T02:45:56.970Z,15.3
2022-07-31T02:50:56.272Z,15.4
2022-07-31T02:55:54.011Z,15.4
2022-07-31T03:00:51.889Z,15.4
2022-07-31T03:05:49.823Z,15.5
2022-07-31T03:10:47.835Z,15.6
2022-07-31T03:15:50.330Z,15.7
2022-07-31T03:20:44.148Z,15.8
2022-07-31T03:25:42.316Z,15.9
2022-07-31T03:30:40.392Z,15.9
2022-07-31T03:35:39.251Z,16
2022-07-31T03:40:36.459Z,16.1
2022-07-31T03:45:34.530Z,16.1
2022-07-31T03:50:33.582Z,16.1
2022-07-31T03:55:31.270Z,16.1
2022-07-31T04:00:29.342Z,16.2
2022-07-31T04:05:27.433Z,16.2
2022-07-31T04:10:25.610Z,16.4
2022-07-31T04:15:23.824Z,16.3
2022-07-31T04:20:21.839Z,16.5
2022-07-31T04:25:20.059Z,16.6
2022-07-31T04:30:18.058Z,16.8
2022-07-31T04:35:16.197Z,16.8
2022-07-31T04:40:14.253Z,16.9
2022-07-31T04:45:12.698Z,17
2022-07-31T04:50:10.656Z,16.7
2022-07-31T04:55:08.735Z,16.8
2022-07-31T05:00:06.967Z,16.8
2022-07-31T05:05:05.102Z,16.5
2022-07-31T05:10:03.532Z,16.8
2022-07-31T05:15:01.639Z,16.8
2022-07-31T05:19:59.630Z,16.9
2022-07-31T05:24:58.129Z,17.1
2022-07-31T05:29:56.790Z,18.2
2022-07-31T05:34:57.290Z,20.6
2022-07-31T05:39:55.922Z,20.5
2022-07-31T05:44:54.345Z,21
2022-07-31T05:49:54.879Z,26.5
2022-07-31T05:54:53.564Z,23.7
2022-07-31T05:59:49.922Z,22
2022-07-31T06:04:47.054Z,21.2
2022-07-31T06:09:46.635Z,26.2
2022-07-31T06:14:48.255Z,30
2022-07-31T06:19:49.400Z,32.6
2022-07-31T06:24:46.622Z,29.6
2022-07-31T06:29:47.187Z,31.9
2022-07-31T06:34:45.541Z,31.7
2022-07-31T06:39:54.142Z,28.7
2022-07-31T06:44:43.191Z,29.1
2022-07-31T06:49:35.620Z,30.2
2022-07-31T06:54:34.042Z,29.3
2022-07-31T06:59:39.523Z,32.5
2022-07-31T07:04:56.732Z,31.4
2022-07-31T07:09:31.622Z,31.6
2022-07-31T07:14:30.876Z,32.2
2022-07-31T07:19:27.120Z,28.4
2022-07-31T07:24:24.047Z,28.4
2022-07-31T07:29:21.577Z,26.9
2022-07-31T07:34:18.786Z,26.6
2022-07-31T07:39:17.657Z,28.3
2022-07-31T07:44:19.746Z,29.9
2022-07-31T07:49:15.917Z,28.5
2022-07-31T07:54:14.581Z,28.6
2022-07-31T07:59:14.712Z,27.6
2022-07-31T08:04:09.138Z,26.4
2022-07-31T08:09:06.437Z,25.7
2022-07-31T08:14:04.638Z,26.1
2022-07-31T08:19:02.266Z,25.7
2022-07-31T08:24:00.860Z,25.9
2022-07-31T08:28:58.780Z,25.6
2022-07-31T08:33:57.027Z,26.8
2022-07-31T08:38:57.811Z,29.4
2022-07-31T08:43:59.761Z,28.5
2022-07-31T08:48:52.949Z,28.3
2022-07-31T08:53:51.929Z,28.3
2022-07-31T08:58:47.492Z,24.9
2022-07-31T09:03:44.057Z,24.7
2022-07-31T09:08:43.515Z,26
2022-07-31T09:13:42.289Z,27.3
2022-07-31T09:18:42.026Z,27.8
2022-07-31T09:23:37.930Z,25.2
2022-07-31T09:28:35.487Z,25.6
2022-07-31T09:33:33.398Z,25.2
2022-07-31T09:38:30.897Z,25.3
2022-07-31T09:43:31.555Z,27.1
2022-07-31T09:48:29.933Z,27.2
2022-07-31T09:53:26.873Z,26.5
2022-07-31T09:58:24.929Z,26.7
2022-07-31T10:03:23.976Z,27.4
2022-07-31T10:08:26.462Z,29
2022-07-31T10:13:23.229Z,28.5
2022-07-31T10:18:35.505Z,28
2022-07-31T10:23:20.194Z,31.3
2022-07-31T10:28:20.244Z,31.1
2022-07-31T10:33:41.135Z,31.2
2022-07-31T10:38:15.858Z,31.7
2022-07-31T10:43:13.749Z,32
2022-07-31T10:48:14.835Z,35.2
2022-07-31T10:53:12.149Z,30.8
2022-07-31T10:58:09.338Z,30.2
2022-07-31T11:03:11.962Z,34.2
2022-07-31T11:08:07.122Z,31.8
2022-07-31T11:13:05.346Z,34.2
2022-07-31T11:18:16.575Z,34.9
2022-07-31T11:22:59.885Z,30.9
2022-07-31T11:27:56.917Z,32.4
2022-07-31T11:32:54.584Z,29.1
2022-07-31T11:37:57.211Z,33.8
2022-07-31T11:43:04.906Z,31.3
2022-07-31T11:48:10.382Z,27.8
2022-07-31T11:52:45.186Z,29.6
2022-07-31T11:57:51.067Z,32.7
2022-07-31T12:02:42.134Z,32.2
2022-07-31T12:07:38.120Z,31.7
2022-07-31T12:12:37.252Z,30.2
2022-07-31T12:17:33.833Z,32.6
2022-07-31T12:22:33.688Z,30.8
2022-07-31T12:27:29.915Z,28.9
2022-07-31T12:32:29.325Z,30.7
2022-07-31T12:37:26.171Z,29.1
2022-07-31T12:42:30.299Z,33.9
2022-07-31T12:47:26.257Z,31.4
2022-07-31T12:52:24.759Z,35.1
2022-07-31T12:57:19.846Z,30.2
2022-07-31T13:02:20.955Z,34
2022-07-31T13:07:17.906Z,33.8
2022-07-31T13:12:16.983Z,34.8
2022-07-31T13:17:13.811Z,31.4
2022-07-31T13:22:11.441Z,32.6
2022-07-31T13:27:08.057Z,31.8
2022-07-31T13:32:03.415Z,28.4
2022-07-31T13:37:01.572Z,29.3
2022-07-31T13:41:59.976Z,30.1
2022-07-31T13:46:56.150Z,27.1
2022-07-31T13:51:54.899Z,28.9
2022-07-31T13:56:51.711Z,26.8
2022-07-31T14:02:02.367Z,26
2022-07-31T14:06:46.600Z,25.5
2022-07-31T14:11:44.728Z,25.7
2022-07-31T14:16:46.431Z,26.1
2022-07-31T14:21:49.973Z,26.3
2022-07-31T14:26:41.255Z,25.1
2022-07-31T14:31:38.447Z,24.6
2022-07-31T14:36:37.187Z,25.9
2022-07-31T14:41:34.930Z,24.6
2022-07-31T14:46:32.670Z,23.6
2022-07-31T14:51:31.109Z,24.1
2022-07-31T14:56:51.647Z,24.4
2022-07-31T15:01:30.415Z,23.9
2022-07-31T15:06:38.488Z,23.5
2022-07-31T15:11:21.995Z,23
2022-07-31T15:16:19.795Z,23
2022-07-31T15:21:17.593Z,22.9
2022-07-31T15:26:15.385Z,22.8
2022-07-31T15:31:13.444Z,22.5
2022-07-31T15:36:15.086Z,22.9
2022-07-31T15:41:09.930Z,22.6
2022-07-31T15:46:08.064Z,22.3
2022-07-31T15:51:05.983Z,22.2
2022-07-31T15:56:03.803Z,22
2022-07-31T16:01:01.964Z,21.7
2022-07-31T16:05:59.675Z,21.7
2022-07-31T16:10:57.747Z,21.5
2022-07-31T16:15:55.412Z,21.3
2022-07-31T16:20:53.289Z,21.2
2022-07-31T16:25:51.186Z,21.1
2022-07-31T16:30:49.000Z,20.9
2022-07-31T16:35:47.103Z,20.6
2022-07-31T16:40:45.139Z,20.5
2022-07-31T16:45:43.329Z,20.4
2022-07-31T16:50:41.419Z,20.3
2022-07-31T16:55:46.302Z,20.2
2022-07-31T17:00:37.324Z,20
2022-07-31T17:05:35.370Z,19.6
2022-07-31T17:10:33.275Z,19.2
2022-07-31T17:15:31.006Z,18.8
2022-07-31T17:20:29.103Z,18.6
2022-07-31T17:25:27.219Z,18.3
2022-07-31T17:30:25.070Z,17.9
2022-07-31T17:35:22.837Z,17.7
2022-07-31T17:40:41.067Z,17.5
2022-07-31T17:45:18.550Z,17.1
2022-07-31T17:50:16.268Z,16.8
2022-07-31T17:55:14.246Z,16.5
2022-07-31T18:00:12.061Z,16.4
2022-07-31T18:05:10.370Z,16.3
2022-07-31T18:10:08.389Z,16.1
2022-07-31T18:15:06.710Z,15.9
2022-07-31T18:20:04.842Z,15.9
2022-07-31T18:25:03.140Z,15.9
2022-07-31T18:30:01.579Z,16.1
2022-07-31T18:34:59.915Z,16
2022-07-31T18:39:58.044Z,15.8
2022-07-31T18:44:56.049Z,15.6
2022-07-31T18:50:58.019Z,15.5
2022-07-31T18:54:54.453Z,15.3
2022-07-31T18:59:50.711Z,15.4
2022-07-31T19:04:49.405Z,15.3
2022-07-31T19:09:47.680Z,15.1
2022-07-31T19:14:45.954Z,15.1
2022-07-31T19:19:55.302Z,15.1
2022-07-31T19:29:41.415Z,15
2022-07-31T19:34:39.821Z,15
2022-07-31T19:39:37.829Z,14.9
2022-07-31T19:44:36.089Z,15
2022-07-31T19:49:37.902Z,15
2022-07-31T19:54:33.147Z,14.8
2022-07-31T19:59:31.069Z,14.7
2022-07-31T20:04:29.365Z,14.7
2022-07-31T20:09:27.778Z,14.6
2022-07-31T20:14:26.267Z,14.6
2022-07-31T20:19:24.644Z,14.6
2022-07-31T20:24:22.823Z,14.5
2022-07-31T20:29:21.657Z,14.6
2022-07-31T20:34:19.846Z,14.5
2022-07-31T20:39:17.866Z,14.5
2022-07-31T20:44:16.010Z,14.5
2022-07-31T20:49:19.305Z,14.4
2022-07-31T20:54:13.775Z,14.3
2022-07-31T20:59:11.798Z,14.2
2022-07-31T21:04:09.791Z,14.1
2022-07-31T21:09:08.345Z,14
2022-07-31T21:14:06.643Z,14
2022-07-31T21:19:04.973Z,13.9
2022-07-31T21:24:03.100Z,13.8
2022-07-31T21:29:01.677Z,14
2022-07-31T21:34:02.175Z,13.9
2022-07-31T21:39:00.761Z,13.8
2022-07-31T21:43:59.904Z,13.8
2022-07-31T21:48:57.255Z,13.8
2022-07-31T21:53:55.326Z,13.8
2022-07-31T21:58:53.539Z,13.7
2022-07-31T22:03:51.363Z,13.5
2022-07-31T22:08:49.417Z,13.5
2022-07-31T22:13:47.561Z,13.6
2022-07-31T22:18:45.857Z,13.6
2022-07-31T22:23:43.905Z,13.5
2022-07-31T22:28:42.151Z,13.5
2022-07-31T22:33:40.442Z,13.3
2022-07-31T22:38:38.526Z,13.3
2022-07-31T22:44:05.655Z,13.2
2022-07-31T22:48:35.430Z,13.4
2022-07-31T22:53:33.824Z,13.2
2022-07-31T22:58:32.092Z,13.1
2022-07-31T23:03:30.365Z,13.1
2022-07-31T23:08:28.484Z,13
2022-07-31T23:13:26.462Z,12.9
2022-07-31T23:18:24.437Z,12.8
2022-07-31T23:23:22.427Z,12.6
2022-07-31T23:28:20.175Z,12.4
2022-07-31T23:33:18.377Z,12.3
2022-07-31T23:38:16.868Z,12.2
2022-07-31T23:43:18.158Z,12.2
2022-07-31T23:48:15.029Z,12.1
2022-07-31T23:53:11.439Z,12.2
2022-07-31T23:58:09.521Z,12.1
